Time;durP1;ratioP1;P1;durP2;ratioP2;P2;SDS_P1;SDS_P2;PMS_P1;PMS_P2;Temp;Humidity;BMP_temperature;BMP_pressure;BME280_temperature;BME280_humidity;BME280_pressure;Samples;Min_cycle;Max_cycle;Signal;HPM_P1;HPM_P2
2022/03/29 00:01:31;;;;;;;22.05;12.35;;;;;;;;;;5067844;28;20040;-75
2022/03/29 00:03:57;;;;;;;24.65;13.43;;;;;;;;;;5067837;28;20051;-74
2022/03/29 00:06:23;;;;;;;19.63;11.88;;;;;;;;;;5067609;28;20032;-74
2022/03/29 00:08:49;;;;;;;22.15;12.57;;;;;;;;;;5051273;28;20071;-74
2022/03/29 00:11:17;;;;;;;19.35;10.98;;;;;;;;;;5051663;28;20119;-74
2022/03/29 00:13:43;;;;;;;25.58;13.70;;;;;;;;;;5050858;28;20044;-74
2022/03/29 00:16:09;;;;;;;24.33;11.60;;;;;;;;;;5067899;28;20036;-74
2022/03/29 00:18:35;;;;;;;20.58;11.45;;;;;;;;;;5067946;28;20472;-74
2022/03/29 00:21:01;;;;;;;18.70;11.30;;;;;;;;;;5051337;28;20451;-74
2022/03/29 00:23:27;;;;;;;22.35;12.10;;;;;;;;;;5067597;28;20044;-74
2022/03/29 00:25:53;;;;;;;23.35;12.70;;;;;;;;;;5070254;28;20479;-74
2022/03/29 00:28:19;;;;;;;23.80;12.90;;;;;;;;;;5070714;28;20071;-74
2022/03/29 00:30:45;;;;;;;18.38;11.30;;;;;;;;;;5054981;28;20045;-74
2022/03/29 00:33:12;;;;;;;23.08;12.05;;;;;;;;;;5071324;28;20124;-74
2022/03/29 00:35:38;;;;;;;20.65;12.05;;;;;;;;;;5071243;28;20079;-75
2022/03/29 00:38:04;;;;;;;20.60;12.55;;;;;;;;;;5071248;28;20472;-75
2022/03/29 00:40:30;;;;;;;22.73;12.90;;;;;;;;;;5070951;28;20041;-75
2022/03/29 00:42:57;;;;;;;23.23;11.95;;;;;;;;;;5054463;28;20041;-75
2022/03/29 00:45:23;;;;;;;20.98;10.75;;;;;;;;;;5053993;28;20055;-74
2022/03/29 00:47:50;;;;;;;20.27;10.73;;;;;;;;;;5071279;28;20420;-74
2022/03/29 00:50:16;;;;;;;21.63;12.15;;;;;;;;;;5070997;28;20032;-75
2022/03/29 00:52:42;;;;;;;24.50;12.75;;;;;;;;;;5053986;28;20037;-74
2022/03/29 00:55:12;;;;;;;20.63;12.38;;;;;;;;;;5070858;28;20039;-74
2022/03/29 00:57:38;;;;;;;21.17;12.35;;;;;;;;;;5070206;28;20056;-74
2022/03/29 01:00:05;;;;;;;25.60;12.95;;;;;;;;;;5071013;28;20527;-73
2022/03/29 01:02:31;;;;;;;22.25;13.57;;;;;;;;;;5053830;28;20048;-74
2022/03/29 01:04:57;;;;;;;22.13;13.48;;;;;;;;;;5054093;28;20119;-74
2022/03/29 01:07:24;;;;;;;25.77;14.05;;;;;;;;;;5070572;28;20072;-74
2022/03/29 01:09:50;;;;;;;23.33;13.27;;;;;;;;;;5054549;28;20377;-73
2022/03/29 01:12:16;;;;;;;24.55;13.93;;;;;;;;;;5054133;28;20047;-74
2022/03/29 01:14:43;;;;;;;24.42;13.90;;;;;;;;;;5070574;28;20535;-74
2022/03/29 01:19:56;;;;;;;23.85;14.00;;;;;;;;;;5070398;28;20040;-74
2022/03/29 01:22:22;;;;;;;23.00;13.35;;;;;;;;;;5070218;28;20032;-74
2022/03/29 01:24:49;;;;;;;22.77;13.77;;;;;;;;;;5069927;28;20047;-74
2022/03/29 01:27:15;;;;;;;25.70;14.85;;;;;;;;;;5070477;28;20053;-75
2022/03/29 01:29:43;;;;;;;26.30;15.00;;;;;;;;;;5068026;28;20035;-75
2022/03/29 01:32:10;;;;;;;26.75;15.38;;;;;;;;;;5070421;28;20044;-74
2022/03/29 01:34:37;;;;;;;28.20;15.75;;;;;;;;;;5053542;28;20105;-74
2022/03/29 01:37:04;;;;;;;29.13;16.08;;;;;;;;;;5069339;28;20041;-74
2022/03/29 01:39:31;;;;;;;27.38;16.75;;;;;;;;;;5053150;28;20041;-75
2022/03/29 01:41:57;;;;;;;28.25;16.10;;;;;;;;;;5070587;28;20476;-78
2022/03/29 01:44:23;;;;;;;22.83;13.27;;;;;;;;;;5053190;28;20119;-75
2022/03/29 01:46:50;;;;;;;27.02;15.55;;;;;;;;;;5069994;28;20052;-74
2022/03/29 01:49:16;;;;;;;29.17;15.43;;;;;;;;;;5069834;28;20046;-74
2022/03/29 01:51:43;;;;;;;28.42;16.00;;;;;;;;;;5070768;28;20040;-74
2022/03/29 01:54:09;;;;;;;26.35;14.95;;;;;;;;;;5069998;28;20120;-74
2022/03/29 01:56:36;;;;;;;29.00;16.10;;;;;;;;;;5069636;28;20045;-74
2022/03/29 01:59:07;;;;;;;31.30;17.02;;;;;;;;;;5069838;28;20047;-74
2022/03/29 02:01:43;;;;;;;27.35;16.05;;;;;;;;;;5064944;28;20039;-74
2022/03/29 02:04:09;;;;;;;27.98;16.88;;;;;;;;;;5052268;28;20043;-74
2022/03/29 02:06:36;;;;;;;29.88;17.83;;;;;;;;;;5068300;28;20044;-74
2022/03/29 02:09:03;;;;;;;28.30;16.38;;;;;;;;;;5069590;28;20127;-74
2022/03/29 02:11:29;;;;;;;28.40;15.93;;;;;;;;;;5069276;28;20085;-75
2022/03/29 02:13:55;;;;;;;29.48;16.50;;;;;;;;;;5069366;28;20041;-74
2022/03/29 02:16:21;;;;;;;26.92;15.18;;;;;;;;;;5069008;28;20087;-74
2022/03/29 02:18:47;;;;;;;28.05;16.05;;;;;;;;;;5052747;28;20043;-74
2022/03/29 02:21:14;;;;;;;27.83;15.60;;;;;;;;;;5053063;28;20033;-75
2022/03/29 02:23:41;;;;;;;25.55;16.08;;;;;;;;;;5069586;28;20373;-75
2022/03/29 02:26:07;;;;;;;25.88;15.70;;;;;;;;;;5052685;28;20044;-75
2022/03/29 02:28:33;;;;;;;28.38;16.50;;;;;;;;;;5052046;28;20557;-74
2022/03/29 02:30:59;;;;;;;28.42;16.25;;;;;;;;;;5069507;28;20049;-74
2022/03/29 02:33:25;;;;;;;31.08;15.60;;;;;;;;;;5068785;28;20032;-74
2022/03/29 02:35:52;;;;;;;27.25;16.48;;;;;;;;;;5035873;28;20029;-74
2022/03/29 02:38:20;;;;;;;24.27;14.73;;;;;;;;;;5052566;28;20492;-75
2022/03/29 02:40:46;;;;;;;28.65;15.35;;;;;;;;;;5070491;28;20047;-74
2022/03/29 02:43:12;;;;;;;26.63;15.68;;;;;;;;;;5070422;28;20032;-74
2022/03/29 02:45:38;;;;;;;26.95;14.98;;;;;;;;;;5068941;28;20442;-78
2022/03/29 02:48:05;;;;;;;28.98;16.45;;;;;;;;;;5068253;28;20412;-79
2022/03/29 02:50:31;;;;;;;28.10;15.70;;;;;;;;;;5068509;28;20055;-74
2022/03/29 02:52:58;;;;;;;26.17;14.85;;;;;;;;;;5069174;28;20592;-74
2022/03/29 02:55:26;;;;;;;27.33;15.90;;;;;;;;;;5051623;28;20044;-75
2022/03/29 02:57:53;;;;;;;28.35;15.68;;;;;;;;;;5052231;28;20499;-73
2022/03/29 03:00:20;;;;;;;28.02;15.32;;;;;;;;;;5068901;28;20040;-74
2022/03/29 03:02:46;;;;;;;27.23;16.48;;;;;;;;;;5052103;28;20036;-74
2022/03/29 03:05:13;;;;;;;27.33;15.35;;;;;;;;;;5068470;28;20032;-75
2022/03/29 03:07:39;;;;;;;22.77;13.13;;;;;;;;;;5069655;28;20106;-75
2022/03/29 03:10:06;;;;;;;24.00;14.18;;;;;;;;;;5068607;28;20086;-75
2022/03/29 03:12:39;;;;;;;25.05;14.40;;;;;;;;;;5068325;28;20073;-75
2022/03/29 03:15:06;;;;;;;26.95;14.45;;;;;;;;;;5051854;28;20467;-75
2022/03/29 03:17:32;;;;;;;26.77;14.75;;;;;;;;;;5068033;28;20040;-75
2022/03/29 03:19:59;;;;;;;28.17;15.02;;;;;;;;;;5068254;28;20044;-75
2022/03/29 03:22:25;;;;;;;24.08;14.43;;;;;;;;;;5068048;28;20032;-75
2022/03/29 03:24:51;;;;;;;24.50;14.48;;;;;;;;;;5068167;28;20167;-75
2022/03/29 03:27:17;;;;;;;30.50;15.30;;;;;;;;;;5066232;28;20056;-75
2022/03/29 03:29:47;;;;;;;27.55;15.57;;;;;;;;;;5051486;28;20123;-75
2022/03/29 03:32:13;;;;;;;35.28;17.33;;;;;;;;;;5050218;28;20043;-75
2022/03/29 03:34:40;;;;;;;29.00;14.95;;;;;;;;;;5050964;28;20079;-75
2022/03/29 03:37:06;;;;;;;30.40;16.42;;;;;;;;;;5067933;28;20036;-75
2022/03/29 03:39:34;;;;;;;30.38;16.33;;;;;;;;;;5067973;28;20039;-75
2022/03/29 03:42:00;;;;;;;35.25;17.65;;;;;;;;;;5068192;28;20040;-75
2022/03/29 03:44:27;;;;;;;32.65;16.48;;;;;;;;;;5067917;28;20043;-75
2022/03/29 03:46:53;;;;;;;28.20;15.32;;;;;;;;;;5068147;28;20098;-74
2022/03/29 03:49:19;;;;;;;31.08;16.65;;;;;;;;;;5068154;28;20043;-75
2022/03/29 03:51:45;;;;;;;37.47;19.10;;;;;;;;;;5051112;28;20036;-74
2022/03/29 03:54:11;;;;;;;34.97;17.88;;;;;;;;;;5068072;28;20066;-74
2022/03/29 03:56:38;;;;;;;33.55;17.15;;;;;;;;;;5068825;28;20052;-79
2022/03/29 03:59:04;;;;;;;33.33;16.55;;;;;;;;;;5069083;28;20123;-79
2022/03/29 04:01:30;;;;;;;30.02;15.10;;;;;;;;;;5066655;28;20028;-78
2022/03/29 04:03:56;;;;;;;35.30;16.17;;;;;;;;;;5070819;28;20120;-78
2022/03/29 04:06:22;;;;;;;32.33;15.95;;;;;;;;;;5070042;28;20083;-79
2022/03/29 04:08:48;;;;;;;31.02;15.18;;;;;;;;;;5055611;28;20036;-78
2022/03/29 04:11:14;;;;;;;37.92;17.23;;;;;;;;;;5054769;28;20037;-78
2022/03/29 04:13:40;;;;;;;30.98;17.30;;;;;;;;;;5071805;28;20439;-78
2022/03/29 04:16:06;;;;;;;33.05;16.88;;;;;;;;;;5071423;28;20086;-79
2022/03/29 04:18:32;;;;;;;33.92;16.77;;;;;;;;;;5054517;28;20070;-78
2022/03/29 04:21:00;;;;;;;29.45;15.77;;;;;;;;;;5071667;28;20432;-79
2022/03/29 04:23:26;;;;;;;33.58;16.40;;;;;;;;;;5054965;28;20043;-79
2022/03/29 04:25:52;;;;;;;34.75;16.42;;;;;;;;;;5073206;28;20543;-79
2022/03/29 04:28:19;;;;;;;34.65;16.55;;;;;;;;;;5071663;28;20049;-79
2022/03/29 04:30:46;;;;;;;33.45;16.92;;;;;;;;;;5071174;28;20040;-78
2022/03/29 04:33:13;;;;;;;33.42;16.83;;;;;;;;;;5054668;28;20480;-75
2022/03/29 04:35:39;;;;;;;33.03;16.48;;;;;;;;;;5070874;28;20036;-79
2022/03/29 04:38:05;;;;;;;35.75;17.13;;;;;;;;;;5054797;28;20044;-78
2022/03/29 04:40:31;;;;;;;36.90;16.67;;;;;;;;;;5071102;28;20036;-75
2022/03/29 04:43:00;;;;;;;33.42;17.33;;;;;;;;;;5072520;28;20090;-74
2022/03/29 04:45:26;;;;;;;31.88;16.60;;;;;;;;;;5071996;28;20369;-74
2022/03/29 04:47:52;;;;;;;34.40;16.83;;;;;;;;;;5072210;28;20109;-74
2022/03/29 04:50:18;;;;;;;32.83;15.50;;;;;;;;;;5070359;28;20052;-73
2022/03/29 04:52:46;;;;;;;32.42;16.80;;;;;;;;;;5054647;28;20484;-75
2022/03/29 04:55:12;;;;;;;40.40;19.13;;;;;;;;;;5071230;28;20420;-75
2022/03/29 04:57:41;;;;;;;30.27;16.13;;;;;;;;;;5072368;28;20119;-75
2022/03/29 05:00:08;;;;;;;28.48;15.98;;;;;;;;;;5072231;28;20083;-74
2022/03/29 05:02:35;;;;;;;31.15;15.38;;;;;;;;;;5070724;28;20037;-75
2022/03/29 05:05:02;;;;;;;32.47;16.10;;;;;;;;;;5071081;28;20480;-75
2022/03/29 05:07:28;;;;;;;30.75;15.27;;;;;;;;;;5070683;28;20472;-74
2022/03/29 05:09:55;;;;;;;34.30;16.95;;;;;;;;;;5071367;28;20496;-75
2022/03/29 05:12:21;;;;;;;27.15;14.77;;;;;;;;;;5053336;28;20531;-74
2022/03/29 05:14:47;;;;;;;33.08;15.25;;;;;;;;;;5072024;28;20045;-75
2022/03/29 05:17:13;;;;;;;26.35;14.73;;;;;;;;;;5053719;28;20036;-75
2022/03/29 05:19:39;;;;;;;33.80;15.07;;;;;;;;;;5070200;28;20042;-75
2022/03/29 05:22:06;;;;;;;34.22;16.15;;;;;;;;;;5070101;28;20033;-75
2022/03/29 05:24:32;;;;;;;35.70;17.60;;;;;;;;;;5070202;28;20040;-74
2022/03/29 05:26:58;;;;;;;32.42;15.77;;;;;;;;;;5070183;28;20056;-75
2022/03/29 05:29:25;;;;;;;33.80;17.15;;;;;;;;;;5070010;28;20063;-74
2022/03/29 05:31:51;;;;;;;30.92;15.38;;;;;;;;;;5070562;28;20047;-75
2022/03/29 05:34:17;;;;;;;30.35;15.98;;;;;;;;;;5070657;28;20539;-75
2022/03/29 05:36:46;;;;;;;35.13;17.08;;;;;;;;;;5069989;28;20043;-74
2022/03/29 05:39:16;;;;;;;29.10;15.57;;;;;;;;;;5070292;28;20112;-74
2022/03/29 05:41:43;;;;;;;31.02;15.48;;;;;;;;;;5054164;28;20101;-75
2022/03/29 05:44:09;;;;;;;29.05;14.45;;;;;;;;;;5070243;28;20170;-74
2022/03/29 05:49:20;;;;;;;28.13;14.73;;;;;;;;;;5069772;28;20044;-74
2022/03/29 05:51:46;;;;;;;31.75;15.48;;;;;;;;;;5069986;28;20172;-75
2022/03/29 05:54:13;;;;;;;34.75;16.48;;;;;;;;;;5069913;28;20123;-75
2022/03/29 05:56:39;;;;;;;38.05;17.17;;;;;;;;;;5069628;28;20082;-74
2022/03/29 05:59:05;;;;;;;34.78;16.25;;;;;;;;;;5069774;28;20045;-74
2022/03/29 06:01:31;;;;;;;29.80;15.63;;;;;;;;;;5070877;28;20043;-74
2022/03/29 06:03:57;;;;;;;29.10;15.10;;;;;;;;;;5070091;28;20045;-75
2022/03/29 06:06:23;;;;;;;32.72;16.23;;;;;;;;;;5069051;28;20151;-74
2022/03/29 06:08:49;;;;;;;33.83;16.48;;;;;;;;;;5070984;28;20040;-74
2022/03/29 06:11:15;;;;;;;32.67;15.57;;;;;;;;;;5069614;28;20476;-75
2022/03/29 06:13:41;;;;;;;30.10;16.33;;;;;;;;;;5069207;28;20044;-74
2022/03/29 06:16:07;;;;;;;29.98;14.77;;;;;;;;;;5052612;28;20048;-74
2022/03/29 06:18:34;;;;;;;33.97;16.38;;;;;;;;;;5052345;28;20051;-74
2022/03/29 06:21:00;;;;;;;33.15;16.10;;;;;;;;;;5070759;28;20032;-75
2022/03/29 06:23:26;;;;;;;38.03;15.85;;;;;;;;;;5052032;28;20442;-75
2022/03/29 06:25:54;;;;;;;32.10;16.05;;;;;;;;;;5068950;28;20045;-74
2022/03/29 06:28:20;;;;;;;32.42;15.38;;;;;;;;;;5069032;28;20089;-74
2022/03/29 06:30:47;;;;;;;34.15;16.83;;;;;;;;;;5069272;28;20377;-74
2022/03/29 06:33:14;;;;;;;33.45;16.20;;;;;;;;;;5069207;28;20127;-74
2022/03/29 06:35:40;;;;;;;31.88;17.35;;;;;;;;;;5052199;28;20056;-74
2022/03/29 06:38:07;;;;;;;33.00;17.77;;;;;;;;;;5068750;28;20052;-74
2022/03/29 06:40:33;;;;;;;33.05;16.23;;;;;;;;;;5052243;28;20043;-74
2022/03/29 06:43:00;;;;;;;35.10;16.63;;;;;;;;;;5052754;28;20480;-73
2022/03/29 06:45:27;;;;;;;36.90;18.15;;;;;;;;;;5068662;28;20095;-74
2022/03/29 06:47:53;;;;;;;35.33;17.90;;;;;;;;;;5068780;28;20049;-74
2022/03/29 06:50:19;;;;;;;34.13;16.55;;;;;;;;;;5069258;28;20381;-74
2022/03/29 06:52:46;;;;;;;36.25;17.13;;;;;;;;;;5068697;28;20519;-75
2022/03/29 06:55:18;;;;;;;36.03;17.20;;;;;;;;;;5068180;28;20109;-74
2022/03/29 06:57:44;;;;;;;35.20;17.05;;;;;;;;;;5051330;28;20032;-74
2022/03/29 07:00:12;;;;;;;35.10;17.08;;;;;;;;;;5068588;28;20036;-74
2022/03/29 07:02:38;;;;;;;34.13;16.17;;;;;;;;;;5052153;28;20040;-74
2022/03/29 07:05:04;;;;;;;32.50;16.98;;;;;;;;;;5052449;28;20603;-74
2022/03/29 07:07:31;;;;;;;36.33;17.23;;;;;;;;;;5068074;28;20077;-75
2022/03/29 07:12:52;;;;;;;29.85;15.23;;;;;;;;;;5054013;28;20047;-74
2022/03/29 07:15:18;;;;;;;30.80;16.05;;;;;;;;;;5068629;28;20071;-78
2022/03/29 07:17:48;;;;;;;33.60;15.95;;;;;;;;;;5068220;28;20416;-78
2022/03/29 07:20:16;;;;;;;33.70;16.45;;;;;;;;;;5051713;28;20043;-78
2022/03/29 07:22:43;;;;;;;33.25;16.73;;;;;;;;;;5051888;28;20037;-78
2022/03/29 07:25:09;;;;;;;31.90;15.98;;;;;;;;;;5052327;28;20610;-78
2022/03/29 07:27:35;;;;;;;32.65;16.13;;;;;;;;;;5068176;28;20182;-78
2022/03/29 07:30:03;;;;;;;32.03;16.23;;;;;;;;;;5068718;28;20463;-78
2022/03/29 07:32:29;;;;;;;33.20;15.60;;;;;;;;;;5067454;28;20044;-78
2022/03/29 07:34:55;;;;;;;36.65;16.42;;;;;;;;;;5051243;28;20044;-78
2022/03/29 07:37:22;;;;;;;29.83;15.95;;;;;;;;;;5068237;28;20399;-78
2022/03/29 07:39:48;;;;;;;32.50;15.95;;;;;;;;;;5067476;28;20082;-78
2022/03/29 07:42:14;;;;;;;27.25;15.05;;;;;;;;;;5068095;28;20032;-78
2022/03/29 07:44:41;;;;;;;31.95;16.73;;;;;;;;;;5069005;28;20033;-78
2022/03/29 07:47:07;;;;;;;34.03;16.45;;;;;;;;;;5069233;28;20079;-78
2022/03/29 07:49:33;;;;;;;32.42;14.85;;;;;;;;;;5051424;28;20043;-78
2022/03/29 07:51:59;;;;;;;30.58;15.57;;;;;;;;;;5067940;28;20047;-77
2022/03/29 07:54:25;;;;;;;29.30;15.70;;;;;;;;;;5067882;28;20059;-78
2022/03/29 07:56:51;;;;;;;31.40;16.50;;;;;;;;;;5067784;28;20050;-79
2022/03/29 07:59:17;;;;;;;32.13;16.00;;;;;;;;;;5067729;28;20037;-78
2022/03/29 08:01:43;;;;;;;32.67;16.77;;;;;;;;;;5067982;28;20119;-78
2022/03/29 08:04:09;;;;;;;28.95;15.57;;;;;;;;;;5067864;28;20036;-77
2022/03/29 08:06:35;;;;;;;30.98;15.65;;;;;;;;;;5067648;28;20070;-78
2022/03/29 08:09:02;;;;;;;28.67;16.15;;;;;;;;;;5068184;28;20396;-78
2022/03/29 08:11:29;;;;;;;32.63;16.63;;;;;;;;;;5067889;28;20037;-78
2022/03/29 08:13:56;;;;;;;32.45;16.25;;;;;;;;;;5069695;28;20036;-78
2022/03/29 08:16:22;;;;;;;30.98;16.98;;;;;;;;;;5067868;28;20033;-78
2022/03/29 08:18:48;;;;;;;32.17;16.63;;;;;;;;;;5067458;28;20128;-78
2022/03/29 08:23:59;;;;;;;34.60;16.73;;;;;;;;;;5054137;28;20048;-75
2022/03/29 08:26:25;;;;;;;31.55;15.13;;;;;;;;;;5067495;28;20443;-74
2022/03/29 08:28:51;;;;;;;33.92;15.00;;;;;;;;;;5067594;28;20056;-74
2022/03/29 08:31:18;;;;;;;29.10;15.10;;;;;;;;;;5067738;28;20044;-74
2022/03/29 08:33:44;;;;;;;26.60;14.77;;;;;;;;;;5067021;28;21034;-74
2022/03/29 08:36:10;;;;;;;32.40;14.45;;;;;;;;;;5068728;28;20159;-74
2022/03/29 08:38:36;;;;;;;29.63;15.70;;;;;;;;;;5067449;28;20403;-74
2022/03/29 08:41:04;;;;;;;32.33;15.88;;;;;;;;;;5050925;28;20120;-75
2022/03/29 08:43:30;;;;;;;32.30;16.35;;;;;;;;;;5067159;28;20286;-74
2022/03/29 08:45:57;;;;;;;32.03;15.77;;;;;;;;;;5069406;28;20068;-74
2022/03/29 08:48:27;;;;;;;30.10;16.30;;;;;;;;;;5070592;28;20048;-74
2022/03/29 08:50:54;;;;;;;33.08;16.50;;;;;;;;;;5070921;28;20044;-73
2022/03/29 08:53:21;;;;;;;28.98;14.65;;;;;;;;;;5071140;28;20050;-74
2022/03/29 08:55:48;;;;;;;32.60;15.35;;;;;;;;;;5070455;28;20040;-74
2022/03/29 08:58:16;;;;;;;34.15;15.95;;;;;;;;;;5070825;28;20047;-75
2022/03/29 09:00:44;;;;;;;27.08;15.27;;;;;;;;;;5071079;28;20041;-75
2022/03/29 09:03:11;;;;;;;28.63;16.02;;;;;;;;;;5054123;28;20040;-74
2022/03/29 09:05:37;;;;;;;32.90;16.45;;;;;;;;;;5053659;28;20045;-75
2022/03/29 09:08:09;;;;;;;30.05;16.23;;;;;;;;;;5071095;28;20507;-75
2022/03/29 09:10:49;;;;;;;29.50;15.55;;;;;;;;;;5053975;28;20480;-75
2022/03/29 09:13:22;;;;;;;31.33;16.13;;;;;;;;;;5070873;28;20503;-74
2022/03/29 09:15:52;;;;;;;31.70;15.57;;;;;;;;;;5070418;28;20047;-75
2022/03/29 09:18:19;;;;;;;30.00;15.63;;;;;;;;;;5070533;28;20052;-74
2022/03/29 09:20:47;;;;;;;31.08;16.50;;;;;;;;;;5053989;28;20044;-75
2022/03/29 09:23:14;;;;;;;33.60;16.92;;;;;;;;;;5070751;28;20451;-74
2022/03/29 09:25:46;;;;;;;29.13;14.07;;;;;;;;;;5054027;28;20506;-73
2022/03/29 09:28:14;;;;;;;31.50;16.27;;;;;;;;;;5070410;28;20131;-75
2022/03/29 09:30:53;;;;;;;34.88;17.90;;;;;;;;;;5070488;28;20075;-75
2022/03/29 09:33:20;;;;;;;35.05;16.30;;;;;;;;;;5070336;28;20040;-74
2022/03/29 09:35:54;;;;;;;28.88;15.27;;;;;;;;;;5053803;28;20543;-75
2022/03/29 09:38:26;;;;;;;27.80;15.55;;;;;;;;;;5071708;28;20036;-75
2022/03/29 09:40:53;;;;;;;30.42;16.45;;;;;;;;;;5070012;28;20033;-75
2022/03/29 09:43:22;;;;;;;31.85;15.43;;;;;;;;;;5053283;28;20124;-76
2022/03/29 09:45:50;;;;;;;29.90;15.52;;;;;;;;;;5070031;28;20116;-76
2022/03/29 09:48:20;;;;;;;29.95;15.65;;;;;;;;;;5069938;28;20083;-75
2022/03/29 09:50:46;;;;;;;34.22;15.43;;;;;;;;;;5053236;28;20036;-75
2022/03/29 09:53:32;;;;;;;34.78;17.05;;;;;;;;;;5070087;28;20068;-75
2022/03/29 09:55:59;;;;;;;28.45;15.85;;;;;;;;;;5069936;28;20105;-76
2022/03/29 09:58:25;;;;;;;32.67;15.70;;;;;;;;;;5052573;28;20041;-75
2022/03/29 10:00:52;;;;;;;28.88;15.23;;;;;;;;;;5053129;28;20089;-75
2022/03/29 10:03:18;;;;;;;30.52;15.70;;;;;;;;;;5053131;28;20048;-75
2022/03/29 10:05:47;;;;;;;27.30;15.23;;;;;;;;;;5069630;28;20036;-75
2022/03/29 10:11:03;;;;;;;31.83;15.43;;;;;;;;;;5069737;28;20044;-76
2022/03/29 10:13:30;;;;;;;27.58;14.68;;;;;;;;;;5069489;28;20354;-75
2022/03/29 10:15:57;;;;;;;27.63;15.57;;;;;;;;;;5069727;28;20040;-76
2022/03/29 10:18:26;;;;;;;27.42;14.68;;;;;;;;;;5069512;28;20049;-74
2022/03/29 10:20:54;;;;;;;29.85;15.52;;;;;;;;;;5069302;28;20396;-75
2022/03/29 10:23:24;;;;;;;24.98;14.77;;;;;;;;;;5053376;28;20116;-76
2022/03/29 10:25:54;;;;;;;28.17;14.65;;;;;;;;;;5069005;28;20033;-74
2022/03/29 10:28:21;;;;;;;29.25;16.08;;;;;;;;;;5069186;28;20106;-76
2022/03/29 10:30:47;;;;;;;29.38;15.13;;;;;;;;;;5069066;28;20043;-75
2022/03/29 10:33:20;;;;;;;30.52;14.98;;;;;;;;;;5069444;28;20040;-74
2022/03/29 10:36:07;;;;;;;29.00;15.07;;;;;;;;;;5068707;28;20373;-76
2022/03/29 10:38:49;;;;;;;31.00;14.50;;;;;;;;;;5068654;28;20033;-76
2022/03/29 10:41:28;;;;;;;28.42;14.93;;;;;;;;;;5069129;28;20059;-76
2022/03/29 10:44:14;;;;;;;26.35;14.88;;;;;;;;;;5052288;28;20036;-76
2022/03/29 10:46:45;;;;;;;20.98;13.60;;;;;;;;;;5068827;28;20109;-76
2022/03/29 10:49:17;;;;;;;28.05;14.23;;;;;;;;;;5068823;28;20040;-77
2022/03/29 10:51:44;;;;;;;27.42;14.43;;;;;;;;;;5066305;28;20550;-77
2022/03/29 10:54:22;;;;;;;27.02;13.77;;;;;;;;;;5066559;28;20072;-76
2022/03/29 10:57:03;;;;;;;23.10;14.27;;;;;;;;;;5068635;28;20045;-75
2022/03/29 10:59:30;;;;;;;25.55;14.40;;;;;;;;;;5068067;28;20036;-76
2022/03/29 11:02:14;;;;;;;26.02;13.95;;;;;;;;;;5068497;28;20037;-76
2022/03/29 11:04:58;;;;;;;26.70;14.02;;;;;;;;;;5068683;28;20476;-76
2022/03/29 11:07:25;;;;;;;26.70;13.88;;;;;;;;;;5068610;28;20041;-77
2022/03/29 11:10:07;;;;;;;28.42;13.93;;;;;;;;;;5068013;28;20040;-76
2022/03/29 11:12:40;;;;;;;28.75;14.23;;;;;;;;;;5051654;28;20116;-78
2022/03/29 11:15:25;;;;;;;26.80;13.50;;;;;;;;;;5068871;28;20072;-76
2022/03/29 11:17:51;;;;;;;26.55;14.35;;;;;;;;;;5068340;28;20040;-77
2022/03/29 11:20:30;;;;;;;22.23;13.52;;;;;;;;;;5051711;28;20040;-77
2022/03/29 11:23:00;;;;;;;24.27;13.52;;;;;;;;;;5068671;28;20033;-77
2022/03/29 11:25:26;;;;;;;26.08;13.23;;;;;;;;;;5051883;28;20070;-76
2022/03/29 11:27:53;;;;;;;25.90;13.32;;;;;;;;;;5068124;28;20056;-77
2022/03/29 11:30:20;;;;;;;22.23;13.68;;;;;;;;;;5069462;28;20099;-77
2022/03/29 11:32:46;;;;;;;21.35;12.82;;;;;;;;;;5068330;28;20049;-77
2022/03/29 11:35:15;;;;;;;26.17;13.80;;;;;;;;;;5068314;28;20335;-77
2022/03/29 11:37:45;;;;;;;24.90;13.38;;;;;;;;;;5068004;28;20080;-77
2022/03/29 11:40:12;;;;;;;24.05;13.70;;;;;;;;;;5068300;28;20037;-77
2022/03/29 11:42:49;;;;;;;24.17;14.05;;;;;;;;;;5069438;28;20083;-77
2022/03/29 11:45:16;;;;;;;24.05;13.93;;;;;;;;;;5068034;28;20036;-77
2022/03/29 11:47:52;;;;;;;23.52;14.18;;;;;;;;;;5068205;28;20075;-76
2022/03/29 11:50:43;;;;;;;26.67;14.18;;;;;;;;;;5068070;28;20047;-77
2022/03/29 11:53:16;;;;;;;23.85;14.10;;;;;;;;;;5044214;28;20082;-77
2022/03/29 11:55:43;;;;;;;24.50;14.05;;;;;;;;;;5068257;28;20423;-76
2022/03/29 11:58:26;;;;;;;24.60;14.50;;;;;;;;;;5068323;28;20072;-77
2022/03/29 12:00:52;;;;;;;27.48;14.82;;;;;;;;;;5067687;28;20051;-76
2022/03/29 12:03:28;;;;;;;22.55;14.23;;;;;;;;;;5051439;28;20032;-76
2022/03/29 12:06:08;;;;;;;24.40;14.02;;;;;;;;;;5051721;28;20044;-77
2022/03/29 12:08:53;;;;;;;23.58;14.20;;;;;;;;;;5067850;28;20082;-77
2022/03/29 12:11:21;;;;;;;30.83;14.50;;;;;;;;;;5067786;28;20290;-77
2022/03/29 12:13:48;;;;;;;26.55;14.93;;;;;;;;;;5067728;28;20295;-77
2022/03/29 12:16:17;;;;;;;31.05;14.80;;;;;;;;;;5067286;28;20045;-77
2022/03/29 12:18:45;;;;;;;27.80;14.05;;;;;;;;;;5067776;28;20122;-76
2022/03/29 12:21:12;;;;;;;22.02;14.52;;;;;;;;;;5070578;28;20040;-76
2022/03/29 12:23:38;;;;;;;29.30;15.02;;;;;;;;;;5071648;28;20037;-76
2022/03/29 12:26:05;;;;;;;22.30;14.50;;;;;;;;;;5071811;28;20028;-76
2022/03/29 12:28:31;;;;;;;25.70;14.20;;;;;;;;;;5071481;28;20052;-76
2022/03/29 12:30:58;;;;;;;32.90;15.27;;;;;;;;;;5054907;28;20052;-77
2022/03/29 12:33:24;;;;;;;24.30;14.40;;;;;;;;;;5055489;28;20446;-76
2022/03/29 12:36:08;;;;;;;26.55;13.75;;;;;;;;;;5054896;28;20119;-77
2022/03/29 12:38:52;;;;;;;23.60;14.63;;;;;;;;;;5071504;28;20048;-76
2022/03/29 12:41:32;;;;;;;30.08;14.25;;;;;;;;;;5071466;28;20037;-77
2022/03/29 12:43:59;;;;;;;23.42;14.10;;;;;;;;;;5069837;28;20484;-77
2022/03/29 12:46:25;;;;;;;20.83;13.93;;;;;;;;;;5054884;28;20124;-76
2022/03/29 12:48:51;;;;;;;26.17;14.10;;;;;;;;;;5071301;28;20381;-76
2022/03/29 12:51:18;;;;;;;24.70;14.25;;;;;;;;;;5071203;28;20048;-76
2022/03/29 12:53:55;;;;;;;22.85;13.95;;;;;;;;;;5071271;28;20508;-76
2022/03/29 12:56:31;;;;;;;30.42;14.63;;;;;;;;;;5071570;28;20040;-77
2022/03/29 12:58:58;;;;;;;27.42;14.48;;;;;;;;;;5071643;28;20044;-76
2022/03/29 13:01:28;;;;;;;28.10;14.10;;;;;;;;;;5071306;28;20365;-76
2022/03/29 13:04:05;;;;;;;27.05;13.43;;;;;;;;;;5070893;28;20523;-75
2022/03/29 13:06:41;;;;;;;26.88;14.15;;;;;;;;;;5070788;28;20032;-76
2022/03/29 13:09:07;;;;;;;24.05;12.88;;;;;;;;;;5054759;28;20492;-76
2022/03/29 13:11:34;;;;;;;27.05;14.40;;;;;;;;;;5070731;28;20062;-76
2022/03/29 13:14:07;;;;;;;24.42;12.88;;;;;;;;;;5071384;28;20064;-76
2022/03/29 13:16:33;;;;;;;24.20;12.88;;;;;;;;;;5070830;28;20392;-76
2022/03/29 13:19:00;;;;;;;24.10;12.52;;;;;;;;;;5070809;28;20044;-76
2022/03/29 13:21:34;;;;;;;23.42;12.00;;;;;;;;;;5072074;28;20044;-76
2022/03/29 13:24:17;;;;;;;24.67;12.20;;;;;;;;;;5054388;28;20041;-76
2022/03/29 13:27:01;;;;;;;21.90;11.93;;;;;;;;;;5071533;28;20040;-76
2022/03/29 13:29:27;;;;;;;22.58;10.70;;;;;;;;;;5070791;28;20053;-76
2022/03/29 13:31:54;;;;;;;22.73;10.63;;;;;;;;;;5069448;28;20094;-77
2022/03/29 13:34:21;;;;;;;25.67;10.80;;;;;;;;;;5070468;28;20123;-76
2022/03/29 13:36:47;;;;;;;22.52;10.65;;;;;;;;;;5070164;28;20037;-76
2022/03/29 13:39:15;;;;;;;24.10;11.18;;;;;;;;;;5070412;28;20036;-76
2022/03/29 13:41:41;;;;;;;22.67;11.10;;;;;;;;;;5069830;28;20040;-76
2022/03/29 13:44:07;;;;;;;25.02;11.40;;;;;;;;;;5037201;28;20036;-76
2022/03/29 13:46:34;;;;;;;19.83;9.98;;;;;;;;;;5069895;28;20033;-77
2022/03/29 13:49:00;;;;;;;24.38;10.93;;;;;;;;;;5070343;28;20068;-76
2022/03/29 13:51:26;;;;;;;25.48;10.30;;;;;;;;;;5053344;28;20041;-76
2022/03/29 13:53:52;;;;;;;23.00;10.13;;;;;;;;;;5070019;28;20036;-77
2022/03/29 13:56:19;;;;;;;23.17;10.43;;;;;;;;;;5053370;28;20036;-75
2022/03/29 13:58:45;;;;;;;23.58;10.80;;;;;;;;;;5053145;28;20598;-75
2022/03/29 14:01:11;;;;;;;22.50;10.02;;;;;;;;;;5070006;28;20028;-75
2022/03/29 14:03:37;;;;;;;26.35;10.70;;;;;;;;;;5069882;28;20442;-76
2022/03/29 14:06:04;;;;;;;22.17;10.50;;;;;;;;;;5070029;28;20048;-76
2022/03/29 14:08:31;;;;;;;24.73;10.75;;;;;;;;;;5069972;28;20041;-76
2022/03/29 14:10:58;;;;;;;17.20;9.18;;;;;;;;;;5069852;28;20052;-76
2022/03/29 14:13:29;;;;;;;20.23;10.15;;;;;;;;;;5069781;28;20123;-75
2022/03/29 14:15:59;;;;;;;22.63;10.32;;;;;;;;;;5069803;28;20527;-75
2022/03/29 14:18:25;;;;;;;19.95;10.25;;;;;;;;;;5069595;28;20037;-76
2022/03/29 14:20:52;;;;;;;24.63;9.60;;;;;;;;;;5053171;28;20443;-76
2022/03/29 14:23:20;;;;;;;20.55;9.27;;;;;;;;;;5052779;28;20101;-76
2022/03/29 14:25:47;;;;;;;20.15;8.82;;;;;;;;;;5070561;28;20080;-75
2022/03/29 14:28:13;;;;;;;21.13;8.93;;;;;;;;;;5069266;28;20084;-76
2022/03/29 14:30:40;;;;;;;20.08;10.07;;;;;;;;;;5069154;28;20036;-76
2022/03/29 14:33:07;;;;;;;29.02;9.45;;;;;;;;;;5052727;28;20135;-75
2022/03/29 14:35:33;;;;;;;24.63;10.25;;;;;;;;;;5069532;28;20045;-76